createdAt,value
2022-11-15T00:00:31.381Z,100861.20
2022-11-15T00:03:15.046Z,100863.31
2022-11-15T00:05:50.172Z,100860.35
2022-11-15T00:08:30.709Z,100857.50
2022-11-15T00:11:04.411Z,100853.27
2022-11-15T00:13:38.532Z,100852.61
2022-11-15T00:16:12.692Z,100853.97
2022-11-15T00:18:50.415Z,100844.47
2022-11-15T00:21:22.401Z,100842.48
2022-11-15T00:23:54.050Z,100846.23
2022-11-15T00:26:27.704Z,100842.69
2022-11-15T00:29:01.744Z,100838.73
2022-11-15T00:31:33.431Z,100837.98
2022-11-15T00:34:05.097Z,100844.31
2022-11-15T00:36:45.043Z,100839.23
2022-11-15T00:39:21.321Z,100841.70
2022-11-15T00:41:53.926Z,100833.09
2022-11-15T00:44:25.581Z,100829.60
2022-11-15T00:46:58.472Z,100829.50
2022-11-15T00:49:32.364Z,100826.84
2022-11-15T00:52:09.099Z,100823.21
2022-11-15T00:54:41.993Z,100824.30
2022-11-15T00:57:15.092Z,100818.05
2022-11-15T00:59:46.781Z,100815.52
2022-11-15T01:02:22.266Z,100813.14
2022-11-15T01:04:56.708Z,100812.30
2022-11-15T01:07:28.373Z,100806.50
2022-11-15T01:10:00.672Z,100806.52
2022-11-15T01:12:33.246Z,100801.20
2022-11-15T01:15:05.054Z,100806.93
2022-11-15T01:17:38.471Z,100808.06
2022-11-15T01:20:12.105Z,100802.10
2022-11-15T01:22:46.534Z,100804.25
2022-11-15T01:25:20.740Z,100806.70
2022-11-15T01:27:57.420Z,100804.36
2022-11-15T01:30:31.415Z,100801.52
2022-11-15T01:33:06.893Z,100805.82
2022-11-15T01:35:44.394Z,100797.97
2022-11-15T01:38:16.093Z,100802.02
2022-11-15T01:40:51.579Z,100796.78
2022-11-15T01:43:26.577Z,100796.45
2022-11-15T01:46:02.904Z,100797.66
2022-11-15T01:48:36.630Z,100795.41
2022-11-15T01:51:16.786Z,100789.75
2022-11-15T01:53:53.223Z,100785.55
2022-11-15T01:56:28.703Z,100784.06
2022-11-15T01:59:03.878Z,100786.46
2022-11-15T02:01:37.291Z,100778.06
2022-11-15T02:04:14.429Z,100774.00
2022-11-15T02:06:55.624Z,100772.72
2022-11-15T02:09:32.584Z,100774.83
2022-11-15T02:12:04.595Z,100767.77
2022-11-15T02:14:38.280Z,100766.10
2022-11-15T02:17:21.896Z,100763.10
2022-11-15T02:20:34.539Z,100764.63
2022-11-15T02:23:43.699Z,100756.67
2022-11-15T02:26:56.043Z,100749.89
2022-11-15T02:29:51.650Z,100746.13
2022-11-15T02:32:34.612Z,100745.22
2022-11-15T02:35:21.724Z,100738.56
2022-11-15T02:38:00.245Z,100737.52
2022-11-15T02:40:41.108Z,100735.90
2022-11-15T02:43:34.996Z,100730.39
2022-11-15T02:46:15.355Z,100729.24
2022-11-15T02:48:47.685Z,100726.83
2022-11-15T02:51:24.767Z,100723.43
2022-11-15T02:53:56.584Z,100719.70
2022-11-15T02:56:30.631Z,100714.83
2022-11-15T02:59:16.053Z,100715.59
2022-11-15T03:02:09.872Z,100707.68
2022-11-15T03:04:53.421Z,100701.66
2022-11-15T03:07:33.734Z,100693.11
2022-11-15T03:10:19.838Z,100691.77
2022-11-15T03:12:59.910Z,100695.98
2022-11-15T03:15:35.483Z,100698.16
2022-11-15T03:18:19.793Z,100694.30
2022-11-15T03:20:58.254Z,100694.41
2022-11-15T03:23:33.927Z,100694.21
2022-11-15T03:26:16.090Z,100688.70
2022-11-15T03:28:54.950Z,100691.17
2022-11-15T03:31:51.503Z,100691.48
2022-11-15T03:34:37.407Z,100687.73
2022-11-15T03:37:11.701Z,100682.73
2022-11-15T03:39:47.967Z,100691.08
2022-11-15T03:42:27.086Z,100694.25
2022-11-15T03:45:15.602Z,100697.77
2022-11-15T03:47:53.104Z,100691.59
2022-11-15T03:50:31.222Z,100686.74
2022-11-15T03:53:03.207Z,100690.98
2022-11-15T03:55:35.632Z,100691.60
2022-11-15T03:58:11.683Z,100689.11
2022-11-15T04:00:43.569Z,100687.05
2022-11-15T04:03:15.239Z,100690.71
2022-11-15T04:05:49.234Z,100693.82
2022-11-15T04:08:21.700Z,100688.16
2022-11-15T04:10:56.027Z,100680.23
2022-11-15T04:13:29.922Z,100685.71
2022-11-15T04:16:03.846Z,100688.34
2022-11-15T04:18:36.604Z,100691.48
2022-11-15T04:21:27.715Z,100686.07
2022-11-15T04:24:15.371Z,100680.31
2022-11-15T04:26:49.674Z,100681.79
2022-11-15T04:29:37.640Z,100684.15
2022-11-15T04:32:12.751Z,100681.73
2022-11-15T04:34:44.853Z,100682.54
2022-11-15T04:37:17.227Z,100676.35
2022-11-15T04:39:49.009Z,100678.43
2022-11-15T04:42:23.236Z,100671.30
2022-11-15T04:44:57.769Z,100669.58
2022-11-15T04:47:30.756Z,100664.94
2022-11-15T04:50:10.714Z,100657.59
2022-11-15T04:52:43.219Z,100659.65
2022-11-15T04:55:15.858Z,100660.04
2022-11-15T04:57:47.491Z,100655.70
2022-11-15T05:00:22.210Z,100647.48
2022-11-15T05:03:12.242Z,100650.95
2022-11-15T05:05:43.994Z,100647.05
2022-11-15T05:08:15.606Z,100641.64
2022-11-15T05:10:47.287Z,100640.52
2022-11-15T05:13:19.280Z,100641.74
2022-11-15T05:15:51.187Z,100641.39
2022-11-15T05:18:23.913Z,100641.60
2022-11-15T05:20:55.734Z,100647.59
2022-11-15T05:23:27.398Z,100650.09
2022-11-15T05:26:07.866Z,100650.30
2022-11-15T05:28:41.168Z,100650.88
2022-11-15T05:31:14.468Z,100652.46
2022-11-15T05:33:48.047Z,100646.36
2022-11-15T05:36:23.966Z,100647.23
2022-11-15T05:38:56.789Z,100649.95
2022-11-15T05:41:35.921Z,100647.26
2022-11-15T05:44:14.434Z,100641.34
2022-11-15T05:46:54.590Z,100636.64
2022-11-15T05:49:31.787Z,100640.32
2022-11-15T05:52:05.167Z,100640.00
2022-11-15T05:54:37.992Z,100642.20
2022-11-15T05:57:10.052Z,100639.53
2022-11-15T05:59:42.199Z,100637.29
2022-11-15T06:02:14.188Z,100637.48
2022-11-15T06:04:45.871Z,100642.98
2022-11-15T06:07:17.629Z,100647.02
2022-11-15T06:09:49.449Z,100644.52
2022-11-15T06:12:21.109Z,100646.04
2022-11-15T06:14:52.740Z,100647.74
2022-11-15T06:17:24.398Z,100652.77
2022-11-15T06:19:56.185Z,100658.49
2022-11-15T06:22:27.903Z,100658.48
2022-11-15T06:25:05.004Z,100659.44
2022-11-15T06:27:37.397Z,100657.33
2022-11-15T06:30:14.563Z,100659.04
2022-11-15T06:32:46.285Z,100662.81
2022-11-15T06:35:18.212Z,100666.86
2022-11-15T06:37:50.003Z,100669.55
2022-11-15T06:40:21.858Z,100675.02
2022-11-15T06:43:00.699Z,100675.66
2022-11-15T06:45:34.632Z,100673.22
2022-11-15T06:48:07.056Z,100672.77
2022-11-15T06:50:38.704Z,100670.90
2022-11-15T06:53:10.413Z,100670.65
2022-11-15T06:55:42.359Z,100665.63
2022-11-15T06:58:14.127Z,100665.60
2022-11-15T07:00:46.219Z,100661.58
2022-11-15T07:03:18.040Z,100662.42
2022-11-15T07:05:56.832Z,100663.65
2022-11-15T07:08:30.860Z,100668.19
2022-11-15T07:11:04.456Z,100662.06
2022-11-15T07:13:43.402Z,100662.19
2022-11-15T07:16:15.195Z,100664.31
2022-11-15T07:18:46.900Z,100668.23
2022-11-15T07:21:19.128Z,100666.19
2022-11-15T07:23:53.437Z,100670.54
2022-11-15T07:26:26.665Z,100669.70
2022-11-15T07:28:58.464Z,100664.80
2022-11-15T07:31:30.614Z,100665.30
2022-11-15T07:34:03.493Z,100663.42
2022-11-15T07:36:35.407Z,100663.20
2022-11-15T07:39:07.792Z,100657.78
2022-11-15T07:41:39.648Z,100663.48
2022-11-15T07:44:11.748Z,100664.08
2022-11-15T07:46:43.407Z,100660.20
2022-11-15T07:49:15.232Z,100658.30
2022-11-15T07:51:47.502Z,100657.27
2022-11-15T07:54:19.371Z,100656.27
2022-11-15T07:56:51.976Z,100655.36
2022-11-15T07:59:23.708Z,100654.62
2022-11-15T08:01:55.394Z,100663.50
2022-11-15T08:04:27.494Z,100664.06
2022-11-15T08:06:59.929Z,100657.67
2022-11-15T08:09:32.285Z,100656.54
2022-11-15T08:12:04.338Z,100648.86
2022-11-15T08:14:36.715Z,100653.76
2022-11-15T08:17:08.847Z,100651.66
2022-11-15T08:19:40.764Z,100651.23
2022-11-15T08:22:12.373Z,100648.79
2022-11-15T08:24:44.066Z,100644.62
2022-11-15T08:27:16.937Z,100637.92
2022-11-15T08:29:49.611Z,100644.55
2022-11-15T08:32:21.336Z,100639.60
2022-11-15T08:34:53.018Z,100634.68
2022-11-15T08:37:24.752Z,100636.30
2022-11-15T08:39:56.441Z,100639.45
2022-11-15T08:42:28.230Z,100638.95
2022-11-15T08:44:59.948Z,100637.63
2022-11-15T08:47:32.273Z,100639.00
2022-11-15T08:50:04.453Z,100634.49
2022-11-15T08:52:42.349Z,100633.38
2022-11-15T08:55:16.835Z,100631.85
2022-11-15T08:57:49.443Z,100633.58
2022-11-15T09:00:25.515Z,100630.56
2022-11-15T09:02:57.280Z,100634.15
2022-11-15T09:05:29.726Z,100633.20
2022-11-15T09:08:18.799Z,100628.80
2022-11-15T09:10:54.206Z,100626.94
2022-11-15T09:13:26.260Z,100627.53
2022-11-15T09:16:01.236Z,100629.31
2022-11-15T09:18:48.089Z,100627.33
2022-11-15T09:21:25.716Z,100623.41
2022-11-15T09:23:58.627Z,100623.33
2022-11-15T09:26:30.365Z,100622.31
2022-11-15T09:29:02.435Z,100622.85
2022-11-15T09:31:34.567Z,100622.88
2022-11-15T09:34:06.293Z,100620.36
2022-11-15T09:36:38.054Z,100616.48
2022-11-15T09:39:10.487Z,100611.42
2022-11-15T09:42:07.243Z,100609.89
2022-11-15T09:44:54.451Z,100608.08
2022-11-15T09:47:57.015Z,100607.15
2022-11-15T09:50:39.083Z,100601.18
2022-11-15T09:53:16.272Z,100598.83
2022-11-15T09:55:58.889Z,100599.52
2022-11-15T09:58:39.932Z,100598.49
2022-11-15T10:01:19.332Z,100595.18
2022-11-15T10:03:51.131Z,100590.80
2022-11-15T10:06:27.351Z,100588.80
2022-11-15T10:09:04.165Z,100586.13
2022-11-15T10:11:39.160Z,100589.98
2022-11-15T10:14:17.351Z,100588.79
2022-11-15T10:17:11.899Z,100586.08
2022-11-15T10:19:54.858Z,100586.05
2022-11-15T10:22:32.560Z,100580.60
2022-11-15T10:25:20.650Z,100574.97
2022-11-15T10:27:57.594Z,100578.46
2022-11-15T10:30:35.338Z,100570.05
2022-11-15T10:33:19.918Z,100571.02
2022-11-15T10:36:11.681Z,100567.14
2022-11-15T10:38:55.536Z,100563.30
2022-11-15T10:41:37.480Z,100561.07
2022-11-15T10:44:32.410Z,100559.63
2022-11-15T10:47:38.866Z,100557.80
2022-11-15T10:50:32.892Z,100552.95
2022-11-15T10:53:05.230Z,100549.83
2022-11-15T10:55:37.645Z,100546.84
2022-11-15T10:58:27.015Z,100546.26
2022-11-15T11:01:10.624Z,100543.52
2022-11-15T11:03:43.496Z,100536.49
2022-11-15T11:06:17.318Z,100533.25
2022-11-15T11:09:00.179Z,100534.27
2022-11-15T11:11:49.391Z,100530.90
2022-11-15T11:14:26.911Z,100528.27
2022-11-15T11:17:06.007Z,100525.89
2022-11-15T11:20:02.780Z,100523.67
2022-11-15T11:22:41.974Z,100515.56
2022-11-15T11:25:26.146Z,100518.98
2022-11-15T11:28:16.988Z,100514.48
2022-11-15T11:30:59.337Z,100512.36
2022-11-15T11:33:35.819Z,100507.75
2022-11-15T11:36:19.469Z,100509.08
2022-11-15T11:39:02.566Z,100506.50
2022-11-15T11:42:04.805Z,100500.61
2022-11-15T11:44:45.885Z,100494.29
2022-11-15T11:47:22.566Z,100491.10
2022-11-15T11:49:58.638Z,100488.59
2022-11-15T11:52:36.781Z,100481.31
2022-11-15T11:55:17.947Z,100478.89
2022-11-15T11:57:58.606Z,100476.40
2022-11-15T12:00:34.611Z,100476.94
2022-11-15T12:03:14.340Z,100473.52
2022-11-15T12:05:51.177Z,100472.85
2022-11-15T12:08:34.358Z,100473.23
2022-11-15T12:11:15.938Z,100474.67
2022-11-15T12:13:50.767Z,100470.71
2022-11-15T12:16:28.583Z,100466.73
2022-11-15T12:19:04.163Z,100466.50
2022-11-15T12:21:44.135Z,100461.23
2022-11-15T12:24:21.710Z,100455.83
2022-11-15T12:26:59.401Z,100449.58
2022-11-15T12:29:35.731Z,100444.31
2022-11-15T12:32:33.953Z,100444.90
2022-11-15T12:35:21.917Z,100443.60
2022-11-15T12:37:57.240Z,100443.05
2022-11-15T12:40:38.542Z,100441.39
2022-11-15T12:43:41.996Z,100435.35
2022-11-15T12:46:24.665Z,100433.67
2022-11-15T12:49:01.736Z,100431.54
2022-11-15T12:52:08.083Z,100423.77
2022-11-15T12:55:33.630Z,100427.08
2022-11-15T12:58:31.450Z,100428.67
2022-11-15T13:01:34.328Z,100425.15
2022-11-15T13:04:28.929Z,100423.52
2022-11-15T13:07:04.135Z,100428.04
2022-11-15T13:09:57.126Z,100429.20
2022-11-15T13:12:53.212Z,100426.77
2022-11-15T13:15:47.948Z,100428.94
2022-11-15T13:18:41.699Z,100422.42
2022-11-15T13:21:43.167Z,100421.15
2022-11-15T13:24:21.045Z,100415.80
2022-11-15T13:26:53.080Z,100413.63
2022-11-15T13:29:25.026Z,100416.80
2022-11-15T13:31:56.799Z,100413.80
2022-11-15T13:34:51.147Z,100415.65
2022-11-15T13:37:34.653Z,100407.15
2022-11-15T13:40:25.297Z,100400.62
2022-11-15T13:43:04.397Z,100404.53
2022-11-15T13:45:37.111Z,100404.33
2022-11-15T13:48:12.388Z,100404.55
2022-11-15T13:50:44.300Z,100406.83
2022-11-15T13:53:16.165Z,100410.41
2022-11-15T13:55:47.962Z,100411.27
2022-11-15T13:58:24.150Z,100407.83
2022-11-15T14:01:05.258Z,100410.95
2022-11-15T14:03:48.870Z,100406.89
2022-11-15T14:06:23.482Z,100402.89
2022-11-15T14:09:33.903Z,100398.92
2022-11-15T14:12:26.496Z,100397.31
2022-11-15T14:14:58.386Z,100399.60
2022-11-15T14:17:45.773Z,100397.51
2022-11-15T14:20:35.693Z,100400.69
2022-11-15T14:23:20.845Z,100407.89
2022-11-15T14:25:58.596Z,100402.19
2022-11-15T14:28:38.417Z,100401.33
2022-11-15T14:31:15.350Z,100400.77
2022-11-15T14:33:46.986Z,100393.42
2022-11-15T14:36:20.771Z,100388.79
2022-11-15T14:38:52.617Z,100386.93
2022-11-15T14:41:27.480Z,100385.36
2022-11-15T14:43:59.147Z,100385.55
2022-11-15T14:46:30.843Z,100385.72
2022-11-15T14:49:02.477Z,100388.02
2022-11-15T14:51:35.118Z,100387.67
2022-11-15T14:54:07.118Z,100379.09
2022-11-15T14:56:38.872Z,100377.52
2022-11-15T14:59:10.463Z,100374.66
2022-11-15T15:01:42.275Z,100376.48
2022-11-15T15:04:14.384Z,100378.53
2022-11-15T15:06:46.238Z,100378.23
2022-11-15T15:09:17.935Z,100375.80
2022-11-15T15:11:49.761Z,100377.64
2022-11-15T15:14:21.479Z,100377.05
2022-11-15T15:16:53.113Z,100376.27
2022-11-15T15:19:26.290Z,100381.14
2022-11-15T15:21:58.036Z,100373.53
2022-11-15T15:24:29.842Z,100367.92
2022-11-15T15:27:01.682Z,100366.48
2022-11-15T15:29:33.331Z,100367.61
2022-11-15T15:32:05.131Z,100368.16
2022-11-15T15:34:36.780Z,100368.95
2022-11-15T15:37:21.302Z,100367.39
2022-11-15T15:39:53.146Z,100368.85
2022-11-15T15:42:25.431Z,100366.63
2022-11-15T15:44:57.191Z,100369.46
2022-11-15T15:47:29.304Z,100369.17
2022-11-15T15:50:01.145Z,100364.50
2022-11-15T15:52:32.814Z,100363.98
2022-11-15T15:55:04.538Z,100365.73
2022-11-15T15:57:38.238Z,100360.77
2022-11-15T16:00:12.989Z,100356.09
2022-11-15T16:02:45.155Z,100352.69
2022-11-15T16:05:18.408Z,100354.92
2022-11-15T16:07:51.744Z,100355.17
2022-11-15T16:10:28.936Z,100355.34
2022-11-15T16:13:01.090Z,100355.98
2022-11-15T16:15:34.330Z,100354.88
2022-11-15T16:18:09.136Z,100350.77
2022-11-15T16:20:43.634Z,100351.54
2022-11-15T16:23:17.185Z,100345.63
2022-11-15T16:25:51.522Z,100350.74
2022-11-15T16:28:25.738Z,100355.66
2022-11-15T16:31:05.983Z,100353.73
2022-11-15T16:33:37.685Z,100351.34
2022-11-15T16:36:16.976Z,100355.30
2022-11-15T16:38:48.809Z,100362.45
2022-11-15T16:41:20.875Z,100368.41
2022-11-15T16:43:52.926Z,100365.58
2022-11-15T16:46:26.302Z,100365.63
2022-11-15T16:48:58.268Z,100368.77
2022-11-15T16:51:30.011Z,100367.81
2022-11-15T16:54:01.804Z,100367.29
2022-11-15T16:56:33.862Z,100363.91
2022-11-15T16:59:05.886Z,100359.67
2022-11-15T17:01:46.985Z,100362.13
2022-11-15T17:04:18.379Z,100364.35
2022-11-15T17:06:48.918Z,100363.60
2022-11-15T17:09:24.757Z,100358.52
2022-11-15T17:11:56.857Z,100356.08
2022-11-15T17:14:29.936Z,100355.02
2022-11-15T17:17:02.703Z,100353.64
2022-11-15T17:19:34.805Z,100348.69
2022-11-15T17:22:06.523Z,100347.26
2022-11-15T17:24:38.322Z,100350.94
2022-11-15T17:27:10.107Z,100346.00
2022-11-15T17:29:45.166Z,100343.39
2022-11-15T17:32:16.908Z,100338.09
2022-11-15T17:34:49.223Z,100331.95
2022-11-15T17:37:20.911Z,100337.77
2022-11-15T17:39:52.586Z,100333.84
2022-11-15T17:42:24.248Z,100336.44
2022-11-15T17:44:56.004Z,100328.49
2022-11-15T17:47:27.714Z,100330.77
2022-11-15T17:49:59.508Z,100331.59
2022-11-15T17:52:31.155Z,100331.91
2022-11-15T17:55:02.910Z,100327.20
2022-11-15T17:57:34.631Z,100326.58
2022-11-15T18:00:11.068Z,100322.40
2022-11-15T18:02:42.732Z,100325.55
2022-11-15T18:05:14.528Z,100327.08
2022-11-15T18:07:46.209Z,100327.28
2022-11-15T18:10:23.172Z,100324.33
2022-11-15T18:12:55.831Z,100323.36
2022-11-15T18:15:27.792Z,100312.81
2022-11-15T18:18:00.953Z,100311.20
2022-11-15T18:20:33.429Z,100311.36
2022-11-15T18:23:07.212Z,100308.00
2022-11-15T18:25:38.940Z,100307.48
2022-11-15T18:28:10.649Z,100314.39
2022-11-15T18:30:44.700Z,100313.66
2022-11-15T18:33:16.452Z,100311.61
2022-11-15T18:35:48.638Z,100311.14
2022-11-15T18:38:20.323Z,100311.14
2022-11-15T18:40:52.003Z,100309.79
2022-11-15T18:43:23.651Z,100308.36
2022-11-15T18:45:55.384Z,100304.73
2022-11-15T18:48:30.021Z,100300.31
2022-11-15T18:51:05.748Z,100296.73
2022-11-15T18:53:38.397Z,100293.06
2022-11-15T18:56:12.114Z,100294.38
2022-11-15T18:58:48.690Z,100292.89
2022-11-15T19:01:32.171Z,100295.50
2022-11-15T19:04:23.939Z,100292.66
2022-11-15T19:06:55.681Z,100292.73
2022-11-15T19:09:32.832Z,100299.48
2022-11-15T19:12:05.336Z,100295.91
2022-11-15T19:14:38.180Z,100297.44
2022-11-15T19:17:10.111Z,100293.36
2022-11-15T19:19:41.815Z,100293.45
2022-11-15T19:22:13.494Z,100293.45
2022-11-15T19:24:50.284Z,100299.30
2022-11-15T19:27:23.345Z,100305.34
2022-11-15T19:29:55.143Z,100303.78
2022-11-15T19:32:27.962Z,100304.93
2022-11-15T19:34:59.674Z,100301.48
2022-11-15T19:37:45.499Z,100293.80
2022-11-15T19:40:40.583Z,100287.27
2022-11-15T19:43:44.383Z,100278.98
2022-11-15T19:46:45.529Z,100278.68
2022-11-15T19:49:53.889Z,100275.09
2022-11-15T19:52:38.224Z,100273.58
2022-11-15T19:55:11.273Z,100279.30
2022-11-15T19:57:42.879Z,100272.02
2022-11-15T20:00:15.873Z,100272.59
2022-11-15T20:02:47.850Z,100273.90
2022-11-15T20:05:24.684Z,100271.20
2022-11-15T20:08:04.871Z,100274.04
2022-11-15T20:10:48.810Z,100278.39
2022-11-15T20:13:24.015Z,100280.48
2022-11-15T20:16:02.436Z,100276.49
2022-11-15T20:18:37.045Z,100274.88
2022-11-15T20:21:15.085Z,100269.23
2022-11-15T20:23:53.116Z,100267.86
2022-11-15T20:26:26.923Z,100264.11
2022-11-15T20:29:01.334Z,100262.38
2022-11-15T20:31:47.910Z,100256.27
2022-11-15T20:34:22.564Z,100257.34
2022-11-15T20:36:57.532Z,100259.85
2022-11-15T20:39:32.566Z,100252.60
2022-11-15T20:42:04.532Z,100252.02
2022-11-15T20:44:36.205Z,100245.31
2022-11-15T20:47:10.502Z,100245.52
2022-11-15T20:49:46.075Z,100244.22
2022-11-15T20:52:20.954Z,100242.13
2022-11-15T20:54:52.697Z,100239.02
2022-11-15T20:57:24.460Z,100235.81
2022-11-15T20:59:56.534Z,100238.71
2022-11-15T21:02:29.155Z,100240.36
2022-11-15T21:05:01.355Z,100242.11
2022-11-15T21:07:33.077Z,100242.36
2022-11-15T21:10:29.123Z,100241.68
2022-11-15T21:13:03.223Z,100238.23
2022-11-15T21:15:36.961Z,100236.58
2022-11-15T21:18:09.203Z,100232.83
2022-11-15T21:20:40.839Z,100228.44
2022-11-15T21:23:13.058Z,100217.98
2022-11-15T21:25:52.775Z,100216.64
2022-11-15T21:28:24.656Z,100212.99
2022-11-15T21:30:58.303Z,100210.79
2022-11-15T21:33:38.194Z,100212.42
2022-11-15T21:36:13.743Z,100211.23
2022-11-15T21:38:48.857Z,100215.04
2022-11-15T21:41:22.060Z,100214.50
2022-11-15T21:43:53.807Z,100213.33
2022-11-15T21:46:25.959Z,100212.64
2022-11-15T21:48:58.292Z,100218.41
2022-11-15T21:51:31.461Z,100216.02
2022-11-15T21:54:07.024Z,100218.11
2022-11-15T21:56:38.730Z,100214.56
2022-11-15T21:59:10.498Z,100207.70
2022-11-15T22:01:59.688Z,100209.17
2022-11-15T22:04:32.769Z,100212.09
2022-11-15T22:07:07.720Z,100207.77
2022-11-15T22:09:40.477Z,100202.30
2022-11-15T22:12:14.769Z,100202.90
2022-11-15T22:14:46.713Z,100199.63
2022-11-15T22:17:18.645Z,100197.64
2022-11-15T22:19:53.708Z,100190.16
2022-11-15T22:22:25.623Z,100189.23
2022-11-15T22:24:57.823Z,100186.80
2022-11-15T22:27:29.672Z,100178.05
2022-11-15T22:30:10.851Z,100178.42
2022-11-15T22:32:44.327Z,100178.64
2022-11-15T22:35:17.805Z,100180.73
2022-11-15T22:37:49.614Z,100182.42
2022-11-15T22:40:27.768Z,100180.08
2022-11-15T22:42:59.813Z,100179.38
2022-11-15T22:45:31.744Z,100177.29
2022-11-15T22:48:06.611Z,100179.09
2022-11-15T22:50:38.414Z,100173.93
2022-11-15T22:53:12.818Z,100174.12
2022-11-15T22:55:44.998Z,100172.09
2022-11-15T22:58:19.566Z,100172.27
2022-11-15T23:00:56.261Z,100173.92
2022-11-15T23:03:32.521Z,100175.13
2022-11-15T23:06:11.816Z,100172.66
2022-11-15T23:08:43.676Z,100170.88
2022-11-15T23:11:33.347Z,100169.33
2022-11-15T23:14:06.420Z,100172.15
2022-11-15T23:16:39.845Z,100171.45
2022-11-15T23:19:13.466Z,100175.42
2022-11-15T23:22:04.623Z,100172.66
2022-11-15T23:24:36.662Z,100169.02
2022-11-15T23:27:09.542Z,100172.11
2022-11-15T23:29:55.193Z,100173.70
2022-11-15T23:32:46.051Z,100175.99
2022-11-15T23:35:18.014Z,100179.80
2022-11-15T23:37:49.807Z,100179.02
2022-11-15T23:40:29.350Z,100176.28
2022-11-15T23:43:01.800Z,100175.27
2022-11-15T23:45:38.762Z,100172.12
2022-11-15T23:48:10.758Z,100167.71
2022-11-15T23:50:42.542Z,100164.69
2022-11-15T23:53:14.358Z,100162.20
2022-11-15T23:55:54.686Z,100161.14
2022-11-15T23:58:28.777Z,100161.55
